Time;durP1;ratioP1;P1;durP2;ratioP2;P2;SDS_P1;SDS_P2;PMS_P1;PMS_P2;Temp;Humidity;BMP_temperature;BMP_pressure;BME280_temperature;BME280_humidity;BME280_pressure;Samples;Min_cycle;Max_cycle;Signal;HPM_P1;HPM_P2
2023/12/07 00:00:53;;;;;;;13.35;7.78;;;;;;;23.21;37.51;101263.38;2090586;28;20784;-70
2023/12/07 00:01:55;;;;;;;15.02;7.80;;;;;;;23.21;37.60;101268.06;2090674;28;20831;-68
2023/12/07 00:02:59;;;;;;;13.02;8.10;;;;;;;23.17;37.69;101251.50;2099436;28;20013;-70
2023/12/07 00:04:01;;;;;;;13.32;7.45;;;;;;;23.22;37.67;101264.16;2099150;28;20037;-71
2023/12/07 00:05:05;;;;;;;14.90;7.60;;;;;;;23.21;37.68;101263.38;2098830;28;20850;-71
2023/12/07 00:06:07;;;;;;;13.45;7.50;;;;;;;23.21;37.59;101263.38;2107701;28;20106;-71
2023/12/07 00:07:09;;;;;;;12.68;7.68;;;;;;;23.21;37.66;101248.88;2090550;28;20033;-72
2023/12/07 00:08:11;;;;;;;12.45;7.28;;;;;;;23.20;37.59;101256.28;2099907;28;20908;-74
2023/12/07 00:09:13;;;;;;;14.88;8.02;;;;;;;23.22;37.61;101264.97;2107123;28;20037;-72
2023/12/07 00:10:15;;;;;;;15.70;8.45;;;;;;;23.21;37.60;101257.09;2107674;27;20029;-71
2023/12/07 00:11:21;;;;;;;15.82;8.20;;;;;;;23.21;37.59;101259.84;2123633;27;20881;-74
2023/12/07 00:12:25;;;;;;;13.32;7.75;;;;;;;23.21;37.61;101257.88;2116300;28;20878;-73
2023/12/07 00:13:30;;;;;;;11.90;6.90;;;;;;;23.21;37.64;101257.88;2107792;28;20076;-73
2023/12/07 00:14:34;;;;;;;14.70;7.88;;;;;;;23.21;37.53;101257.88;2106929;28;20028;-73
2023/12/07 00:15:36;;;;;;;13.30;7.65;;;;;;;23.21;37.61;101257.09;2093976;28;20062;-74
2023/12/07 00:16:38;;;;;;;14.40;7.82;;;;;;;23.21;37.58;101257.09;2098386;28;20044;-73
2023/12/07 00:17:40;;;;;;;11.38;7.28;;;;;;;23.20;37.70;101256.28;2082244;28;20061;-73
2023/12/07 00:18:44;;;;;;;15.60;7.60;;;;;;;23.20;37.63;101258.22;2082340;28;20034;-73
2023/12/07 00:19:50;;;;;;;13.82;7.78;;;;;;;23.21;37.72;101255.16;2083107;28;20033;-73
2023/12/07 00:20:54;;;;;;;15.82;7.93;;;;;;;23.21;37.63;101262.56;2092392;28;20036;-73
2023/12/07 00:21:59;;;;;;;12.55;7.13;;;;;;;23.21;37.73;101257.88;2090433;28;20081;-73
2023/12/07 00:23:01;;;;;;;11.25;7.18;;;;;;;23.21;37.70;101262.56;2083413;28;20865;-74
2023/12/07 00:24:03;;;;;;;15.18;7.65;;;;;;;23.20;37.62;101260.97;2090459;28;20033;-73
2023/12/07 00:25:08;;;;;;;12.93;7.28;;;;;;;23.20;37.61;101258.22;2098951;28;20029;-73
2023/12/07 00:26:11;;;;;;;13.88;7.50;;;;;;;23.20;37.66;101264.50;2100082;28;20029;-73
2023/12/07 00:27:16;;;;;;;12.98;6.93;;;;;;;23.20;37.96;101259.00;2098988;28;20103;-73
2023/12/07 00:28:17;;;;;;;12.80;7.50;;;;;;;23.21;37.74;101262.56;2098613;28;20025;-73
2023/12/07 00:29:19;;;;;;;11.52;7.30;;;;;;;23.20;37.75;101260.97;2107194;28;20021;-73
2023/12/07 00:30:21;;;;;;;14.13;7.20;;;;;;;23.20;37.75;101263.69;2090779;28;20037;-72
2023/12/07 00:31:29;;;;;;;12.88;7.63;;;;;;;23.20;37.77;101267.25;2090839;28;20025;-72
2023/12/07 00:32:32;;;;;;;12.45;7.18;;;;;;;23.20;37.69;101261.75;2099406;28;20860;-73
2023/12/07 00:33:37;;;;;;;11.13;6.57;;;;;;;23.20;37.69;101264.50;2098758;28;20895;-73
2023/12/07 00:34:42;;;;;;;13.65;7.40;;;;;;;23.20;37.82;101267.25;2091666;28;20033;-73
2023/12/07 00:35:44;;;;;;;12.00;7.13;;;;;;;23.19;37.63;101257.44;2099080;28;20021;-75
2023/12/07 00:36:46;;;;;;;13.98;7.55;;;;;;;23.20;37.70;101264.50;2098598;28;20115;-75
2023/12/07 00:37:49;;;;;;;12.45;7.35;;;;;;;23.20;37.63;101267.25;2098947;28;20065;-74
2023/12/07 00:38:52;;;;;;;12.43;7.30;;;;;;;23.20;37.71;101272.72;2099450;28;20943;-74
2023/12/07 00:39:57;;;;;;;13.15;7.90;;;;;;;23.20;37.61;101261.75;2090447;28;20033;-74
2023/12/07 00:41:03;;;;;;;14.98;7.70;;;;;;;23.20;37.59;101264.50;2091560;28;20107;-73
2023/12/07 00:42:07;;;;;;;12.52;7.40;;;;;;;23.19;37.58;101264.84;2099466;28;20057;-72
2023/12/07 00:43:10;;;;;;;11.40;7.30;;;;;;;23.18;37.47;101272.28;2099800;28;20863;-72
2023/12/07 00:44:12;;;;;;;12.88;6.97;;;;;;;23.19;37.58;101265.66;2098050;28;20833;-72
2023/12/07 00:45:19;;;;;;;12.30;7.10;;;;;;;23.20;37.57;101269.97;2098415;28;20017;-73
2023/12/07 00:46:23;;;;;;;14.80;8.45;;;;;;;23.20;37.62;101275.47;2098969;28;20037;-71
2023/12/07 00:47:28;;;;;;;12.20;7.20;;;;;;;23.17;37.56;101270.72;2099165;28;20950;-73
2023/12/07 00:48:33;;;;;;;11.90;7.15;;;;;;;23.20;37.70;101266.44;2099013;28;20068;-73
2023/12/07 00:49:42;;;;;;;11.95;6.97;;;;;;;23.21;37.67;101276.28;2098749;28;20021;-73
2023/12/07 00:50:45;;;;;;;12.75;7.20;;;;;;;23.19;37.69;101271.13;2099769;28;20071;-73
2023/12/07 00:51:46;;;;;;;11.32;6.53;;;;;;;23.20;37.62;101272.72;2090709;28;20096;-73
2023/12/07 00:52:49;;;;;;;11.10;6.63;;;;;;;23.16;37.75;101263.59;2082219;28;20045;-73
2023/12/07 00:53:51;;;;;;;14.32;7.80;;;;;;;23.19;37.75;101267.59;2074340;28;20035;-73
2023/12/07 00:54:56;;;;;;;12.65;6.93;;;;;;;23.18;37.75;101280.53;2082844;28;20982;-73
2023/12/07 00:56:03;;;;;;;12.93;7.38;;;;;;;23.18;37.72;101280.53;2099060;28;20036;-71
2023/12/07 00:57:04;;;;;;;13.40;6.90;;;;;;;23.19;37.81;101276.63;2098598;28;20037;-71
2023/12/07 00:58:06;;;;;;;12.90;7.15;;;;;;;23.19;37.77;101281.31;2099190;28;20155;-71
2023/12/07 00:59:14;;;;;;;13.70;7.40;;;;;;;23.19;37.63;101279.38;2098470;28;20106;-72
2023/12/07 01:00:17;;;;;;;13.27;7.00;;;;;;;23.19;37.76;101278.56;2098236;28;20856;-71
2023/12/07 01:01:20;;;;;;;11.80;7.38;;;;;;;23.20;37.75;101282.91;2107446;28;20021;-71
2023/12/07 01:02:23;;;;;;;11.35;6.90;;;;;;;23.19;37.75;101282.13;2107764;28;20029;-72
2023/12/07 01:03:25;;;;;;;11.77;6.35;;;;;;;23.18;37.67;101280.53;2106629;28;20040;-71
2023/12/07 01:04:29;;;;;;;12.68;7.15;;;;;;;23.19;37.76;101276.63;2095208;28;20072;-75
2023/12/07 01:05:33;;;;;;;11.27;6.55;;;;;;;23.18;37.71;101280.53;2093105;28;20045;-71
2023/12/07 01:06:38;;;;;;;11.38;6.30;;;;;;;23.18;37.74;101282.47;2107558;28;20883;-71
2023/12/07 01:07:42;;;;;;;10.05;6.45;;;;;;;23.18;37.78;101277.78;2098810;28;20079;-72
2023/12/07 01:08:44;;;;;;;11.32;6.72;;;;;;;23.18;37.85;101280.53;2107944;28;20070;-72
2023/12/07 01:09:46;;;;;;;10.00;6.55;;;;;;;23.18;37.86;101286.00;2107387;28;20038;-72
2023/12/07 01:10:49;;;;;;;11.32;6.80;;;;;;;23.17;37.88;101283.59;2098990;28;20073;-71
2023/12/07 01:11:50;;;;;;;10.73;6.57;;;;;;;23.18;37.92;101288.75;2107069;28;20926;-72
2023/12/07 01:12:52;;;;;;;11.15;6.43;;;;;;;23.18;37.99;101283.28;2107019;28;20150;-72
2023/12/07 01:13:54;;;;;;;10.70;6.85;;;;;;;23.17;37.91;101278.94;2098763;28;20032;-71
2023/12/07 01:14:55;;;;;;;9.07;6.35;;;;;;;23.18;37.93;101280.53;2098940;28;20037;-72
2023/12/07 01:15:57;;;;;;;13.18;6.63;;;;;;;23.17;38.01;101278.94;2106960;28;20020;-71
2023/12/07 01:16:59;;;;;;;10.88;6.95;;;;;;;23.17;37.86;101278.13;2115693;28;20021;-72
2023/12/07 01:18:00;;;;;;;10.70;6.90;;;;;;;23.17;37.87;101284.44;2115525;28;21281;-71
2023/12/07 01:19:06;;;;;;;11.25;6.57;;;;;;;23.17;37.90;101287.16;2107515;28;20036;-71
2023/12/07 01:20:12;;;;;;;11.10;6.60;;;;;;;23.17;37.95;101278.94;2107381;28;20028;-71
2023/12/07 01:21:15;;;;;;;11.95;7.00;;;;;;;23.17;37.96;101284.44;2115685;28;20024;-71
2023/12/07 01:22:20;;;;;;;11.63;7.20;;;;;;;23.16;37.96;101288.28;2115757;28;20101;-71
2023/12/07 01:23:21;;;;;;;11.30;6.70;;;;;;;23.18;38.06;101286.00;2115735;28;20031;-71
2023/12/07 01:24:23;;;;;;;12.52;6.82;;;;;;;23.17;37.96;101278.94;2098320;28;20114;-71
2023/12/07 01:25:25;;;;;;;11.57;6.80;;;;;;;23.17;37.82;101284.44;2090460;28;20022;-71
2023/12/07 01:26:26;;;;;;;10.32;6.63;;;;;;;23.18;37.88;101290.72;2098597;28;20079;-71
2023/12/07 01:27:28;;;;;;;10.60;6.95;;;;;;;23.17;38.00;101289.91;2098976;28;20029;-71
2023/12/07 01:28:29;;;;;;;15.00;6.78;;;;;;;23.17;37.93;101289.91;2098674;28;20143;-71
2023/12/07 01:29:33;;;;;;;10.70;6.18;;;;;;;23.18;38.00;101291.50;2107106;28;20136;-71
2023/12/07 01:30:36;;;;;;;10.98;6.78;;;;;;;23.17;37.75;101295.41;2107192;28;20216;-70
2023/12/07 01:31:38;;;;;;;13.25;6.80;;;;;;;23.17;37.91;101286.34;2115624;28;20770;-70
2023/12/07 01:32:40;;;;;;;10.43;6.47;;;;;;;23.18;37.98;101296.19;2116070;27;20020;-71
2023/12/07 01:33:41;;;;;;;9.15;6.75;;;;;;;23.17;37.90;101297.31;2115580;28;20028;-71
2023/12/07 01:34:45;;;;;;;11.98;6.93;;;;;;;23.17;37.93;101295.41;2106821;28;20076;-71
2023/12/07 01:35:49;;;;;;;10.40;6.07;;;;;;;23.17;37.96;101295.41;2107335;28;20791;-71
2023/12/07 01:36:51;;;;;;;12.82;6.40;;;;;;;23.17;37.95;101295.41;2106973;28;20835;-71
2023/12/07 01:37:53;;;;;;;11.10;6.38;;;;;;;23.16;37.94;101299.25;2098589;28;20130;-71
2023/12/07 01:38:56;;;;;;;10.50;6.43;;;;;;;23.16;37.91;101293.78;2090505;28;20121;-71
2023/12/07 01:39:58;;;;;;;11.55;6.88;;;;;;;23.17;37.91;101300.06;2107379;28;20035;-71
2023/12/07 01:41:00;;;;;;;11.32;6.47;;;;;;;23.16;37.90;101299.25;2106707;28;21023;-72
2023/12/07 01:42:05;;;;;;;10.10;6.70;;;;;;;23.17;37.83;101302.81;2107040;28;20021;-71
2023/12/07 01:43:07;;;;;;;12.15;6.43;;;;;;;23.16;37.98;101299.25;2106443;28;20032;-73
2023/12/07 01:44:08;;;;;;;9.82;6.18;;;;;;;23.16;37.96;101296.53;2082461;28;20033;-72
2023/12/07 01:45:10;;;;;;;10.35;5.95;;;;;;;23.16;37.95;101298.47;2090031;28;20764;-72
2023/12/07 01:46:11;;;;;;;9.77;5.90;;;;;;;23.17;37.80;101300.06;2106785;28;20161;-72
2023/12/07 01:47:13;;;;;;;11.50;6.75;;;;;;;23.15;37.94;101297.69;2106702;28;20025;-72
2023/12/07 01:48:15;;;;;;;11.25;6.63;;;;;;;23.16;37.93;101299.25;2090316;28;20033;-72
2023/12/07 01:49:17;;;;;;;9.88;5.97;;;;;;;23.16;37.87;101298.47;2082043;28;20784;-71
2023/12/07 01:50:23;;;;;;;10.43;5.43;;;;;;;23.15;37.91;101291.41;2098842;28;20033;-71
2023/12/07 01:51:24;;;;;;;12.98;6.25;;;;;;;23.14;37.88;101296.09;2099242;28;21263;-76
2023/12/07 01:52:28;;;;;;;10.93;6.85;;;;;;;23.16;37.56;101298.47;2098513;28;20037;-72
2023/12/07 01:53:30;;;;;;;14.80;8.07;;;;;;;23.14;36.72;101290.59;2106961;28;20021;-71
2023/12/07 01:54:32;;;;;;;14.35;7.45;;;;;;;23.14;36.20;101301.56;2098630;28;20957;-69
2023/12/07 01:55:33;;;;;;;15.32;8.30;;;;;;;23.13;35.66;101302.69;2098599;28;20176;-73
2023/12/07 01:56:35;;;;;;;15.27;8.43;;;;;;;23.11;35.38;101303.06;2090216;28;20057;-73
2023/12/07 01:57:37;;;;;;;15.45;8.00;;;;;;;23.10;34.91;101297.91;2090726;28;20033;-73
2023/12/07 01:58:39;;;;;;;17.95;9.55;;;;;;;23.08;34.39;101302.94;2115425;28;20817;-73
2023/12/07 01:59:43;;;;;;;16.27;9.05;;;;;;;23.05;34.02;101300.91;2097383;28;20021;-71
2023/12/07 02:00:49;;;;;;;15.80;8.98;;;;;;;23.02;33.89;101299.66;2093319;28;20033;-70
2023/12/07 02:01:51;;;;;;;17.00;9.27;;;;;;;23.01;33.42;101298.03;2106570;28;20886;-71
2023/12/07 02:02:53;;;;;;;15.93;9.35;;;;;;;22.99;33.17;101316.00;2107061;28;20040;-71
2023/12/07 02:03:54;;;;;;;16.15;9.23;;;;;;;22.92;32.66;101311.06;2098244;28;20878;-72
2023/12/07 02:04:56;;;;;;;18.73;9.88;;;;;;;22.93;32.17;101295.41;2098754;28;20888;-72
2023/12/07 02:06:00;;;;;;;17.13;9.98;;;;;;;22.88;32.00;101293.69;2098162;28;20155;-73
2023/12/07 02:07:04;;;;;;;15.20;8.70;;;;;;;22.85;32.01;101297.91;2107213;28;20043;-72
2023/12/07 02:08:06;;;;;;;16.58;9.45;;;;;;;22.81;31.91;101294.25;2106888;28;21261;-72
2023/12/07 02:09:08;;;;;;;15.77;9.30;;;;;;;22.78;31.75;101294.13;2107038;28;20055;-72
2023/12/07 02:10:14;;;;;;;17.00;9.52;;;;;;;22.74;31.88;101294.03;2098188;28;20144;-73
2023/12/07 02:11:16;;;;;;;16.10;8.90;;;;;;;22.70;31.55;101293.13;2091323;28;20033;-73
2023/12/07 02:12:19;;;;;;;16.05;8.93;;;;;;;22.66;31.67;101298.47;2098342;28;21233;-72
2023/12/07 02:13:23;;;;;;;19.55;9.30;;;;;;;22.64;31.57;101305.47;2106846;28;20161;-71
2023/12/07 02:14:25;;;;;;;14.57;8.70;;;;;;;22.61;31.66;101295.19;2106953;28;20041;-71
2023/12/07 02:15:29;;;;;;;18.08;9.15;;;;;;;22.56;31.72;101289.91;2099170;28;20040;-69
2023/12/07 02:16:43;;;;;;;15.65;8.30;;;;;;;22.53;32.14;101287.84;2099417;28;20029;-69
2023/12/07 02:18:02;;;;;;;15.27;7.97;;;;;;;22.51;32.51;101287.38;2100622;28;20037;-69
2023/12/07 02:19:31;;;;;;;13.10;7.90;;;;;;;22.48;32.85;101285.34;2094176;28;20025;-69
2023/12/07 02:21:01;;;;;;;11.75;7.10;;;;;;;22.45;33.16;101286.84;2097810;28;20020;-70
2023/12/07 02:22:12;;;;;;;13.68;7.68;;;;;;;22.42;33.33;101285.56;2106822;28;20937;-71
2023/12/07 02:23:17;;;;;;;13.10;7.38;;;;;;;22.41;33.56;101283.97;2113861;28;20024;-71
2023/12/07 02:24:22;;;;;;;11.93;6.55;;;;;;;22.39;33.79;101285.47;2107187;28;20041;-71
2023/12/07 02:25:46;;;;;;;12.90;6.68;;;;;;;22.39;33.90;101297.22;2097669;28;20033;-71
2023/12/07 02:26:49;;;;;;;11.18;6.53;;;;;;;22.39;34.14;101299.16;2087480;28;20033;-71
2023/12/07 02:27:53;;;;;;;10.50;6.40;;;;;;;22.36;34.31;101289.69;2099387;28;20925;-70
2023/12/07 02:28:55;;;;;;;11.30;6.60;;;;;;;22.36;34.31;101295.16;2098237;28;20041;-70
2023/12/07 02:29:57;;;;;;;10.05;6.18;;;;;;;22.36;34.42;101295.16;2090115;28;20160;-70
2023/12/07 02:30:59;;;;;;;12.70;6.93;;;;;;;22.36;34.63;101289.69;2097992;28;20159;-70
2023/12/07 02:32:01;;;;;;;11.02;6.55;;;;;;;22.35;34.77;101307.25;2090230;28;20120;-70
2023/12/07 02:33:03;;;;;;;13.32;6.40;;;;;;;22.33;34.82;101290.34;2098964;28;21014;-71
2023/12/07 02:34:04;;;;;;;11.38;7.18;;;;;;;22.35;34.97;101298.22;2089783;28;20029;-71
2023/12/07 02:35:09;;;;;;;10.13;6.57;;;;;;;22.34;35.10;101302.91;2081600;28;20040;-70
2023/12/07 02:36:17;;;;;;;10.57;6.18;;;;;;;22.34;35.15;101297.44;2090398;28;20044;-70
2023/12/07 02:37:21;;;;;;;13.48;6.53;;;;;;;22.34;35.27;101291.16;2092262;28;20922;-70
2023/12/07 02:38:26;;;;;;;11.20;6.78;;;;;;;22.35;35.42;101295.47;2106773;28;20035;-70
2023/12/07 02:39:27;;;;;;;11.48;6.50;;;;;;;22.34;35.34;101294.69;2098687;28;20065;-70
2023/12/07 02:40:30;;;;;;;10.73;6.63;;;;;;;22.35;35.41;101299.03;2089755;28;20030;-69
2023/12/07 02:41:34;;;;;;;11.60;6.82;;;;;;;22.34;35.58;101297.44;2098731;28;20029;-69
2023/12/07 02:42:40;;;;;;;10.63;6.80;;;;;;;22.34;35.72;101297.44;2098406;28;20040;-71
2023/12/07 02:43:43;;;;;;;10.88;6.53;;;;;;;22.36;35.65;101297.09;2098688;28;20860;-70
2023/12/07 02:44:45;;;;;;;12.50;6.72;;;;;;;22.35;35.70;101299.03;2090032;28;20910;-70
2023/12/07 02:45:50;;;;;;;10.15;6.43;;;;;;;22.36;35.81;101295.16;2099080;28;20037;-69
2023/12/07 02:46:54;;;;;;;10.68;6.65;;;;;;;22.36;35.97;101299.84;2106797;28;20143;-69
2023/12/07 02:47:57;;;;;;;13.63;6.70;;;;;;;22.35;35.99;101299.03;2098365;28;20045;-70
2023/12/07 02:48:59;;;;;;;10.45;6.32;;;;;;;22.36;35.94;101302.56;2098573;28;20024;-70
2023/12/07 02:50:02;;;;;;;9.35;6.20;;;;;;;22.37;36.12;101302.22;2098593;28;20159;-70
2023/12/07 02:51:07;;;;;;;12.50;7.28;;;;;;;22.38;36.11;101297.53;2098499;28;20025;-70
2023/12/07 02:52:09;;;;;;;10.07;6.53;;;;;;;22.38;36.18;101303.03;2106315;28;20143;-69
2023/12/07 02:53:10;;;;;;;10.05;6.10;;;;;;;22.38;36.17;101298.38;2098499;28;20035;-70
2023/12/07 02:54:12;;;;;;;9.95;6.15;;;;;;;22.39;36.20;101305.44;2090015;28;20041;-69
2023/12/07 02:55:15;;;;;;;11.75;6.93;;;;;;;22.39;36.33;101297.22;2106562;28;20025;-69
2023/12/07 02:56:16;;;;;;;10.32;5.75;;;;;;;22.40;36.38;101300.75;2106260;28;20021;-69
2023/12/07 02:57:24;;;;;;;9.82;5.97;;;;;;;22.40;36.37;101296.06;2106584;28;20076;-69
2023/12/07 02:58:26;;;;;;;9.75;6.10;;;;;;;22.41;36.41;101303.16;2106318;28;20032;-70
2023/12/07 02:59:28;;;;;;;11.18;6.30;;;;;;;22.40;36.54;101296.06;2106229;28;20081;-69
2023/12/07 03:00:30;;;;;;;10.13;5.65;;;;;;;22.41;36.53;101303.16;2105623;28;20981;-70
2023/12/07 03:01:32;;;;;;;9.13;6.10;;;;;;;22.42;36.54;101299.28;2098095;28;20099;-69
2023/12/07 03:02:53;;;;;;;10.25;6.25;;;;;;;22.43;36.53;101303.59;2098048;28;20100;-69
2023/12/07 03:03:55;;;;;;;12.95;6.80;;;;;;;22.42;36.61;101304.75;2097978;28;20207;-69
2023/12/07 03:04:57;;;;;;;10.82;6.20;;;;;;;22.44;36.51;101302.44;2098249;28;20048;-69
2023/12/07 03:06:02;;;;;;;10.57;6.38;;;;;;;22.42;36.57;101298.47;2090143;28;20050;-69
2023/12/07 03:07:04;;;;;;;11.18;6.53;;;;;;;22.46;36.69;101304.06;2090528;28;20026;-68
2023/12/07 03:08:05;;;;;;;10.10;5.93;;;;;;;22.46;36.67;101298.59;2098987;28;20033;-69
2023/12/07 03:09:07;;;;;;;10.70;6.30;;;;;;;22.46;36.82;101304.88;2098162;28;20041;-69
2023/12/07 03:10:08;;;;;;;10.13;6.72;;;;;;;22.47;36.71;101294.69;2106640;28;20067;-69
2023/12/07 03:11:10;;;;;;;9.68;6.03;;;;;;;22.47;36.72;101300.19;2107013;28;20016;-69
2023/12/07 03:12:15;;;;;;;10.65;5.72;;;;;;;22.48;36.77;101297.13;2107351;28;20041;-69
2023/12/07 03:13:20;;;;;;;10.88;6.18;;;;;;;22.48;36.69;101297.13;2098040;28;20040;-69
2023/12/07 03:14:21;;;;;;;11.73;6.28;;;;;;;22.49;36.68;101297.91;2090778;28;20144;-69
2023/12/07 03:15:23;;;;;;;9.55;5.97;;;;;;;22.49;36.80;101293.22;2106265;28;20139;-69
2023/12/07 03:16:27;;;;;;;8.98;6.10;;;;;;;22.51;36.80;101303.84;2106627;28;20200;-70
2023/12/07 03:17:30;;;;;;;11.88;6.57;;;;;;;22.51;36.92;101301.09;2098454;28;20033;-69
2023/12/07 03:18:31;;;;;;;10.60;6.28;;;;;;;22.52;36.79;101305.44;2098104;28;20114;-69
2023/12/07 03:19:39;;;;;;;8.80;5.75;;;;;;;22.53;36.79;101304.31;2106265;28;20037;-69
2023/12/07 03:20:41;;;;;;;9.63;6.22;;;;;;;22.51;36.96;101295.59;2106792;28;20021;-69
2023/12/07 03:21:45;;;;;;;11.43;6.88;;;;;;;22.53;36.86;101304.31;2106032;28;20028;-70
2023/12/07 03:22:46;;;;;;;10.35;6.10;;;;;;;22.54;36.89;101300.41;2097861;28;20162;-70
2023/12/07 03:23:50;;;;;;;9.05;5.70;;;;;;;22.54;37.03;101305.88;2081093;28;20070;-69
2023/12/07 03:24:53;;;;;;;9.02;5.50;;;;;;;22.52;37.13;101292.53;2090652;28;20945;-68
2023/12/07 03:25:55;;;;;;;9.73;6.03;;;;;;;22.55;37.04;101296.53;2089394;28;20040;-68
2023/12/07 03:26:57;;;;;;;9.73;5.93;;;;;;;22.55;36.89;101302.03;2090088;28;20032;-68
2023/12/07 03:27:58;;;;;;;10.48;6.45;;;;;;;22.56;36.92;101298.94;2097714;28;20032;-69
2023/12/07 03:28:59;;;;;;;9.52;6.10;;;;;;;22.57;37.07;101299.72;2098223;28;20933;-69
2023/12/07 03:30:01;;;;;;;9.57;5.32;;;;;;;22.56;37.05;101300.88;2098348;28;20074;-70
2023/12/07 03:31:03;;;;;;;9.82;6.18;;;;;;;22.57;37.02;101297.00;2099598;28;20084;-70
2023/12/07 03:32:07;;;;;;;9.82;5.57;;;;;;;22.58;37.15;101295.88;2099012;28;20143;-70
2023/12/07 03:33:11;;;;;;;9.73;5.90;;;;;;;22.57;37.21;101297.81;2099753;28;20067;-71
2023/12/07 03:34:15;;;;;;;9.75;5.75;;;;;;;22.58;37.17;101295.88;2108438;28;20089;-70
2023/12/07 03:35:17;;;;;;;9.73;5.80;;;;;;;22.58;37.11;101298.59;2107809;28;20044;-70
2023/12/07 03:36:19;;;;;;;9.52;5.65;;;;;;;22.57;37.24;101299.72;2099339;28;20022;-70
2023/12/07 03:37:21;;;;;;;9.98;5.93;;;;;;;22.59;37.34;101305.69;2107709;28;20840;-71
2023/12/07 03:38:23;;;;;;;8.93;5.97;;;;;;;22.60;37.23;101299.88;2108278;28;20021;-71
2023/12/07 03:39:25;;;;;;;8.30;5.50;;;;;;;22.59;37.30;101297.47;2107940;28;20021;-71
2023/12/07 03:40:27;;;;;;;8.10;5.25;;;;;;;22.61;37.47;101308.88;2107410;28;20016;-71
2023/12/07 03:41:29;;;;;;;10.05;5.80;;;;;;;22.61;37.34;101300.66;2099230;28;20746;-71
2023/12/07 03:42:30;;;;;;;8.32;5.50;;;;;;;22.61;37.40;101295.19;2099553;28;20127;-71
2023/12/07 03:43:36;;;;;;;8.40;5.32;;;;;;;22.61;37.33;101306.16;2099490;28;20753;-71
2023/12/07 03:44:37;;;;;;;8.38;5.78;;;;;;;22.62;37.32;101291.28;2099647;28;20037;-71
2023/12/07 03:45:39;;;;;;;8.50;5.18;;;;;;;22.63;37.40;101298.38;2099507;28;20025;-71
2023/12/07 03:46:41;;;;;;;8.30;5.57;;;;;;;22.64;37.48;101299.97;2099586;28;20029;-71
2023/12/07 03:47:47;;;;;;;10.52;6.10;;;;;;;22.63;37.38;101301.09;2099927;28;20770;-71
2023/12/07 03:48:51;;;;;;;9.50;5.97;;;;;;;22.64;37.43;101299.97;2107610;28;21226;-71
2023/12/07 03:49:53;;;;;;;8.38;5.30;;;;;;;22.63;37.41;101298.38;2090915;28;20144;-71
2023/12/07 03:50:55;;;;;;;9.60;6.05;;;;;;;22.64;37.44;101299.97;2083152;28;20919;-71
2023/12/07 03:51:59;;;;;;;9.93;5.90;;;;;;;22.65;37.39;101309.78;2091235;28;20760;-71
2023/12/07 03:53:01;;;;;;;9.50;5.68;;;;;;;22.65;37.51;101302.38;2099483;28;20102;-71
2023/12/07 03:54:05;;;;;;;9.93;5.97;;;;;;;22.64;37.46;101311.75;2108012;28;20852;-71
2023/12/07 03:55:10;;;;;;;9.60;5.40;;;;;;;22.66;37.52;101308.66;2107381;28;20040;-70
2023/12/07 03:56:27;;;;;;;9.50;5.80;;;;;;;22.65;37.50;101309.78;2100729;28;20079;-71
2023/12/07 03:57:30;;;;;;;9.77;6.10;;;;;;;22.61;37.38;101304.19;2101121;28;20029;-71
2023/12/07 03:58:32;;;;;;;9.40;5.40;;;;;;;22.66;37.49;101306.69;2107278;28;20902;-70
2023/12/07 03:59:36;;;;;;;9.73;5.60;;;;;;;22.63;37.49;101301.09;2107958;28;20032;-70
2023/12/07 04:00:38;;;;;;;9.52;5.40;;;;;;;22.67;37.54;101307.53;2099360;28;20077;-70
2023/12/07 04:01:40;;;;;;;9.40;5.22;;;;;;;22.66;37.44;101295.72;2091163;28;20029;-70
2023/12/07 04:02:42;;;;;;;8.55;5.28;;;;;;;22.68;37.41;101306.38;2099265;28;20852;-70
2023/12/07 04:03:44;;;;;;;8.93;5.63;;;;;;;22.68;37.57;101311.84;2107281;28;20182;-70
2023/12/07 04:04:45;;;;;;;8.80;5.47;;;;;;;22.67;37.50;101313.00;2108025;28;20083;-71
2023/12/07 04:05:47;;;;;;;9.50;5.47;;;;;;;22.67;37.45;101308.31;2107453;28;20032;-70
2023/12/07 04:06:49;;;;;;;8.43;5.30;;;;;;;22.68;37.52;101314.59;2108022;28;20024;-71
2023/12/07 04:07:50;;;;;;;8.18;5.45;;;;;;;22.68;37.40;101312.66;2099044;28;20942;-70
2023/12/07 04:08:52;;;;;;;9.57;5.95;;;;;;;22.67;37.29;101316.53;2100238;28;20121;-70
2023/12/07 04:09:54;;;;;;;8.60;5.55;;;;;;;22.69;37.53;101302.47;2098711;28;20033;-70
2023/12/07 04:10:55;;;;;;;9.43;5.60;;;;;;;22.69;37.53;101313.44;2108013;28;20028;-72
2023/12/07 04:11:57;;;;;;;7.90;5.20;;;;;;;22.70;37.59;101314.22;2099138;28;20028;-70
2023/12/07 04:12:58;;;;;;;7.97;5.57;;;;;;;22.70;37.44;101314.22;2091456;28;20808;-70
2023/12/07 04:14:00;;;;;;;9.27;5.68;;;;;;;22.69;37.48;101307.97;2099052;28;20021;-70
2023/12/07 04:15:07;;;;;;;8.23;4.95;;;;;;;22.70;37.56;101304.09;2108134;28;20066;-70
2023/12/07 04:16:29;;;;;;;8.65;5.25;;;;;;;22.71;37.63;101302.16;2107559;28;20028;-70
2023/12/07 04:17:30;;;;;;;9.10;5.10;;;;;;;22.71;37.64;101311.16;2100975;28;20036;-70
2023/12/07 04:18:33;;;;;;;9.73;5.50;;;;;;;22.71;37.52;101313.91;2099275;28;20025;-69
2023/12/07 04:19:35;;;;;;;8.13;5.18;;;;;;;22.72;37.61;101314.69;2099389;28;20025;-70
2023/12/07 04:20:37;;;;;;;7.97;5.13;;;;;;;22.72;37.63;101318.25;2099065;28;20103;-70
2023/12/07 04:21:39;;;;;;;10.35;5.50;;;;;;;22.72;37.67;101322.94;2083193;28;20112;-70
2023/12/07 04:22:41;;;;;;;8.80;5.28;;;;;;;22.72;37.73;101317.44;2074447;28;20022;-70
2023/12/07 04:23:45;;;;;;;10.00;5.68;;;;;;;22.72;37.59;101315.50;2092208;28;20041;-70
2023/12/07 04:24:46;;;;;;;9.00;5.43;;;;;;;22.72;37.57;101317.44;2099150;28;20037;-69
2023/12/07 04:25:49;;;;;;;7.95;5.25;;;;;;;22.72;37.73;101318.25;2091073;28;20141;-69
2023/12/07 04:26:51;;;;;;;9.52;5.35;;;;;;;22.72;37.75;101312.75;2107868;28;20036;-70
2023/12/07 04:27:52;;;;;;;8.68;5.13;;;;;;;22.73;37.65;101313.56;2090919;28;20932;-70
2023/12/07 04:28:54;;;;;;;6.75;4.80;;;;;;;22.72;37.59;101312.75;2082370;28;20896;-70
2023/12/07 04:29:56;;;;;;;8.35;5.22;;;;;;;22.72;37.79;101312.75;2099098;28;20076;-71
2023/12/07 04:30:58;;;;;;;8.45;5.30;;;;;;;22.73;37.87;101308.91;2098867;28;20025;-70
2023/12/07 04:32:02;;;;;;;8.68;5.28;;;;;;;22.73;37.85;101311.63;2091118;28;20025;-69
2023/12/07 04:33:02;;;;;;;7.28;4.80;;;;;;;22.72;37.87;101312.75;2090614;28;21229;-70
2023/12/07 04:34:04;;;;;;;8.23;4.70;;;;;;;22.73;37.85;101308.91;2090466;28;20160;-70
2023/12/07 04:35:06;;;;;;;8.50;5.00;;;;;;;22.74;37.81;101305.00;2091170;28;20873;-70
2023/12/07 04:36:09;;;;;;;7.88;5.15;;;;;;;22.74;37.87;101315.97;2090581;28;20043;-70
2023/12/07 04:37:11;;;;;;;10.50;5.57;;;;;;;22.74;37.76;101315.97;2099039;28;20040;-70
2023/12/07 04:38:15;;;;;;;8.40;5.00;;;;;;;22.73;37.77;101311.63;2099414;28;20033;-72
2023/12/07 04:39:17;;;;;;;8.75;5.40;;;;;;;22.74;37.91;101310.47;2107677;28;20206;-70
2023/12/07 04:40:19;;;;;;;8.27;5.13;;;;;;;22.74;37.92;101312.44;2107514;28;20164;-71
2023/12/07 04:41:21;;;;;;;9.57;5.65;;;;;;;22.75;37.79;101323.03;2098742;28;20143;-70
2023/12/07 04:42:22;;;;;;;7.47;4.82;;;;;;;22.74;37.87;101321.44;2098641;28;20029;-71
2023/12/07 04:43:24;;;;;;;8.55;4.85;;;;;;;22.76;37.98;101315.59;2090569;28;20143;-70
2023/12/07 04:44:26;;;;;;;7.85;5.25;;;;;;;22.75;38.02;101323.03;2099551;28;20013;-70
2023/12/07 04:45:28;;;;;;;9.10;5.15;;;;;;;22.76;37.96;101318.34;2106984;28;20139;-70
2023/12/07 04:46:30;;;;;;;8.90;5.50;;;;;;;22.75;38.08;101323.03;2099131;28;20107;-71
2023/12/07 04:47:33;;;;;;;8.15;5.10;;;;;;;22.76;38.11;101319.16;2107355;28;20044;-71
2023/12/07 04:48:34;;;;;;;8.60;5.03;;;;;;;22.76;38.03;101323.84;2107621;28;20025;-70
2023/12/07 04:49:38;;;;;;;7.45;4.70;;;;;;;22.76;37.88;101321.91;2098469;28;20151;-70
2023/12/07 04:50:42;;;;;;;7.97;4.97;;;;;;;22.77;37.96;101329.00;2075131;28;20157;-71
2023/12/07 04:51:46;;;;;;;9.85;5.50;;;;;;;22.76;38.06;101324.66;2091014;28;20918;-70
2023/12/07 04:52:48;;;;;;;9.23;5.75;;;;;;;22.77;38.02;101326.25;2099197;28;20066;-70